Antimony, Utah
Current Conditions -  °F | °C
As of 5:53 PM on Monday 24 Nov 2014 (Local Time) from KBCE Reporting Station
Clear Clear  
Wind Chill: 12°   Ceiling: Unl
Heat Index: 24°   Visibility: 10mi
Dew Point:   Wind: 14mph
Humidity: 48%   Direction: 330°NNW
Pressure: 30.38"   Gusts: NA
Location:  38.12°N, 112°W
Report Text: KBCE 250053Z AUTO 33012KT 10SM CLR M04/M14 A3038 RMK AO2 SLP316 T10441139
Loading
Personal Weather Stations






























Interactive Weather Map New forecast layout! Learn more

10-Day Weather Forecast

Advertisements
Track Severe Weather on mobile